createdAt,value
2023-03-17T00:01:35.054Z,6.97
2023-03-17T00:04:05.853Z,7.38
2023-03-17T00:06:36.749Z,7.40
2023-03-17T00:09:09.191Z,6.47
2023-03-17T00:11:39.617Z,8.57
2023-03-17T00:14:10.699Z,9.20
2023-03-17T00:16:44.457Z,8.35
2023-03-17T00:19:22.181Z,10.07
2023-03-17T00:21:53.280Z,7.93
2023-03-17T00:24:23.905Z,7.63
2023-03-17T00:26:54.833Z,11.77
2023-03-17T00:29:27.043Z,13.55
2023-03-17T00:31:59.937Z,12.00
2023-03-17T00:34:31.321Z,16.25
2023-03-17T00:37:03.626Z,11.98
2023-03-17T00:39:34.868Z,11.50
2023-03-17T00:42:09.266Z,12.85
2023-03-17T00:44:42.276Z,14.30
2023-03-17T00:47:14.754Z,21.45
2023-03-17T00:49:45.385Z,14.98
2023-03-17T00:52:15.792Z,30.98
2023-03-17T00:54:46.837Z,48.55
2023-03-17T00:57:18.024Z,63.72
2023-03-17T00:59:48.509Z,39.83
2023-03-17T01:02:22.686Z,30.58
2023-03-17T01:05:05.566Z,15.73
2023-03-17T01:07:38.726Z,28.05
2023-03-17T01:10:20.734Z,17.95
2023-03-17T01:12:54.040Z,23.08
2023-03-17T01:15:25.332Z,15.00
2023-03-17T01:17:55.786Z,14.80
2023-03-17T01:20:30.890Z,15.68
2023-03-17T01:23:03.158Z,18.42
2023-03-17T01:25:35.318Z,14.38
2023-03-17T01:28:06.172Z,12.60
2023-03-17T01:30:41.851Z,34.38
2023-03-17T01:33:14.740Z,20.23
2023-03-17T01:35:47.372Z,32.92
2023-03-17T01:38:17.830Z,24.58
2023-03-17T01:40:51.665Z,22.42
2023-03-17T01:43:32.204Z,16.63
2023-03-17T01:46:36.159Z,13.60
2023-03-17T01:49:25.451Z,14.65
2023-03-17T01:51:55.791Z,13.13
2023-03-17T01:54:48.131Z,14.95
2023-03-17T01:57:18.500Z,16.90
2023-03-17T01:59:57.721Z,13.27
2023-03-17T02:02:36.165Z,22.73
2023-03-17T02:05:11.215Z,14.02
2023-03-17T02:07:43.268Z,14.73
2023-03-17T02:10:16.122Z,12.93
2023-03-17T02:12:49.066Z,22.40
2023-03-17T02:15:19.447Z,14.50
2023-03-17T02:17:50.186Z,12.45
2023-03-17T02:20:20.491Z,12.88
2023-03-17T02:22:54.381Z,14.95
2023-03-17T02:25:27.046Z,16.35
2023-03-17T02:28:03.424Z,13.77
2023-03-17T02:30:35.154Z,13.10
2023-03-17T02:33:06.097Z,12.20
2023-03-17T02:35:36.966Z,12.93
2023-03-17T02:38:08.202Z,10.02
2023-03-17T02:40:38.664Z,9.85
2023-03-17T02:43:09.167Z,11.35
2023-03-17T02:45:39.554Z,8.75
2023-03-17T02:48:10.720Z,14.75
2023-03-17T02:50:41.384Z,11.00
2023-03-17T02:53:12.049Z,9.98
2023-03-17T02:55:42.788Z,12.63
2023-03-17T02:58:13.238Z,10.73
2023-03-17T03:00:44.098Z,11.00
2023-03-17T03:03:14.534Z,7.68
2023-03-17T03:05:44.927Z,13.00
2023-03-17T03:08:15.963Z,12.95
2023-03-17T03:10:46.224Z,9.70
2023-03-17T03:13:17.301Z,13.15
2023-03-17T03:15:47.814Z,8.95
2023-03-17T03:18:18.261Z,9.23
2023-03-17T03:20:49.622Z,11.88
2023-03-17T03:23:20.282Z,12.32
2023-03-17T03:25:50.667Z,9.40
2023-03-17T03:28:21.552Z,9.90
2023-03-17T03:30:52.109Z,10.80
2023-03-17T03:33:23.172Z,12.07
2023-03-17T03:35:54.423Z,11.65
2023-03-17T03:38:24.845Z,9.05
2023-03-17T03:40:56.068Z,10.60
2023-03-17T03:43:27.296Z,6.72
2023-03-17T03:45:57.732Z,8.38
2023-03-17T03:48:28.281Z,9.30
2023-03-17T03:51:01.032Z,11.30
2023-03-17T03:53:32.651Z,10.38
2023-03-17T03:56:03.474Z,9.27
2023-03-17T03:58:33.919Z,9.02
2023-03-17T04:01:09.040Z,7.97
2023-03-17T04:03:40.961Z,8.48
2023-03-17T04:06:11.456Z,12.40
2023-03-17T04:08:42.106Z,10.68
2023-03-17T04:11:12.588Z,8.35
2023-03-17T04:13:43.115Z,7.03
2023-03-17T04:16:14.138Z,8.15
2023-03-17T04:18:44.651Z,9.70
2023-03-17T04:21:15.378Z,4.88
2023-03-17T04:23:45.907Z,49.63
2023-03-17T04:26:18.936Z,39.45
2023-03-17T04:28:49.854Z,36.42
2023-03-17T04:31:20.289Z,16.27
2023-03-17T04:33:50.876Z,185.70
2023-03-17T04:36:24.687Z,58.33
2023-03-17T04:38:55.419Z,54.83
2023-03-17T04:41:26.198Z,32.05
2023-03-17T04:43:56.516Z,19.60
2023-03-17T04:46:27.259Z,72.78
2023-03-17T04:48:57.926Z,59.30
2023-03-17T04:51:28.769Z,48.03
2023-03-17T04:53:59.447Z,25.00
2023-03-17T04:56:31.703Z,90.72
2023-03-17T04:59:02.802Z,54.13
2023-03-17T05:01:33.960Z,49.03
2023-03-17T05:04:04.282Z,22.75
2023-03-17T05:06:34.835Z,12.07
2023-03-17T05:09:06.124Z,14.60
2023-03-17T05:11:37.775Z,11.30
2023-03-17T05:14:08.163Z,8.38
2023-03-17T05:16:38.576Z,11.73
2023-03-17T05:19:09.219Z,10.02
2023-03-17T05:21:39.504Z,6.65
2023-03-17T05:24:10.487Z,4.38
2023-03-17T05:26:42.586Z,5.07
2023-03-17T05:29:12.934Z,9.13
2023-03-17T05:31:43.991Z,5.57
2023-03-17T05:34:14.649Z,5.40
2023-03-17T05:36:46.139Z,5.70
2023-03-17T05:39:16.582Z,2.60
2023-03-17T05:41:47.157Z,4.55
2023-03-17T05:44:18.014Z,2.70
2023-03-17T05:46:49.056Z,3.47
2023-03-17T05:49:20.306Z,3.33
2023-03-17T05:51:50.746Z,5.55
2023-03-17T05:54:21.399Z,2.47
2023-03-17T05:56:52.172Z,7.13
2023-03-17T05:59:23.773Z,3.97
2023-03-17T06:01:54.234Z,3.25
2023-03-17T06:04:24.405Z,37.90
2023-03-17T06:06:54.734Z,71.55
2023-03-17T06:09:25.328Z,99.15
2023-03-17T06:11:55.624Z,48.10
2023-03-17T06:14:27.123Z,40.75
2023-03-17T06:16:57.745Z,17.63
2023-03-17T06:19:28.227Z,13.48
2023-03-17T06:21:58.697Z,12.05
2023-03-17T06:24:29.115Z,6.22
2023-03-17T06:26:59.446Z,5.82
2023-03-17T06:29:31.643Z,6.07
2023-03-17T06:32:18.933Z,4.80
2023-03-17T06:34:50.163Z,5.95
2023-03-17T06:37:20.897Z,5.45
2023-03-17T06:39:51.498Z,5.88
2023-03-17T06:42:22.656Z,4.10
2023-03-17T06:44:54.200Z,3.97
2023-03-17T06:47:26.039Z,4.97
2023-03-17T06:49:59.216Z,4.57
2023-03-17T06:52:30.188Z,2.97
2023-03-17T06:55:00.677Z,2.97
2023-03-17T06:57:31.003Z,3.75
2023-03-17T07:00:01.446Z,6.07
2023-03-17T07:02:31.887Z,5.97
2023-03-17T07:05:02.896Z,52.53
2023-03-17T07:07:33.322Z,25.77
2023-03-17T07:10:04.783Z,11.38
2023-03-17T07:12:35.832Z,9.73
2023-03-17T07:15:07.412Z,8.32
2023-03-17T07:17:38.285Z,9.18
2023-03-17T07:20:09.282Z,4.45
2023-03-17T07:22:39.646Z,4.53
2023-03-17T07:25:11.281Z,4.38
2023-03-17T07:27:41.747Z,3.60
2023-03-17T07:30:14.390Z,5.95
2023-03-17T07:32:44.894Z,69.30
2023-03-17T07:35:17.647Z,47.38
2023-03-17T07:37:48.883Z,105.00
2023-03-17T07:40:20.209Z,193.75
2023-03-17T07:42:51.489Z,95.93
2023-03-17T07:45:22.061Z,202.68
2023-03-17T07:47:53.362Z,262.83
2023-03-17T07:50:24.746Z,67.93
2023-03-17T07:52:55.050Z,31.73
2023-03-17T07:55:25.808Z,31.15
2023-03-17T07:57:56.367Z,21.52
2023-03-17T08:00:28.133Z,15.77
2023-03-17T08:03:09.287Z,20.97
2023-03-17T08:05:41.239Z,9.25
2023-03-17T08:08:12.306Z,9.13
2023-03-17T08:10:42.739Z,15.07
2023-03-17T08:13:13.230Z,10.77
2023-03-17T08:15:44.369Z,7.70
2023-03-17T08:18:14.956Z,8.55
2023-03-17T08:20:46.438Z,8.52
2023-03-17T08:23:17.095Z,12.80
2023-03-17T08:25:48.267Z,9.90
2023-03-17T08:28:19.357Z,5.32
2023-03-17T08:30:50.921Z,11.63
2023-03-17T08:33:21.354Z,6.35
2023-03-17T08:35:52.329Z,7.35
2023-03-17T08:38:23.293Z,8.48
2023-03-17T08:40:53.743Z,5.88
2023-03-17T08:43:25.447Z,4.80
2023-03-17T08:46:00.702Z,7.53
2023-03-17T08:48:31.985Z,7.25
2023-03-17T08:51:02.614Z,6.75
2023-03-17T08:53:34.010Z,5.43
2023-03-17T08:56:06.267Z,6.50
2023-03-17T08:58:41.379Z,6.72
2023-03-17T09:01:15.193Z,6.65
2023-03-17T09:03:47.140Z,6.30
2023-03-17T09:06:18.121Z,6.63
2023-03-17T09:08:52.397Z,7.40
2023-03-17T09:11:25.163Z,4.75
2023-03-17T09:13:57.150Z,6.93
2023-03-17T09:16:29.980Z,13.45
2023-03-17T09:19:00.692Z,6.38
2023-03-17T09:21:31.315Z,9.07
2023-03-17T09:24:02.636Z,6.85
2023-03-17T09:26:33.494Z,8.73
2023-03-17T09:29:04.703Z,7.57
2023-03-17T09:31:38.086Z,6.95
2023-03-17T09:36:39.069Z,5.72
2023-03-17T09:39:10.324Z,5.55
2023-03-17T09:41:59.201Z,5.32
2023-03-17T09:44:50.771Z,9.15
2023-03-17T09:47:52.382Z,9.38
2023-03-17T09:50:31.001Z,5.75
2023-03-17T09:53:04.144Z,5.50
2023-03-17T09:55:36.714Z,6.70
2023-03-17T09:58:07.249Z,5.88
2023-03-17T10:00:37.418Z,7.28
2023-03-17T10:03:13.596Z,7.95
2023-03-17T10:05:44.013Z,6.72
2023-03-17T10:08:29.931Z,7.43
2023-03-17T10:11:05.215Z,7.10
2023-03-17T10:13:38.615Z,8.70
2023-03-17T10:16:13.812Z,6.43
2023-03-17T10:18:59.320Z,6.88
2023-03-17T10:21:37.204Z,7.25
2023-03-17T10:24:08.468Z,5.22
2023-03-17T10:26:58.898Z,4.88
2023-03-17T10:29:30.359Z,7.03
2023-03-17T10:32:01.093Z,6.05
2023-03-17T10:34:37.751Z,6.40
2023-03-17T10:37:14.195Z,7.95
2023-03-17T10:39:51.792Z,6.38
2023-03-17T10:42:29.320Z,4.90
2023-03-17T10:45:07.097Z,9.82
2023-03-17T10:47:41.182Z,7.32
2023-03-17T10:50:27.639Z,8.07
2023-03-17T10:53:29.350Z,6.35
2023-03-17T10:56:11.177Z,5.25
2023-03-17T10:58:51.591Z,5.15
2023-03-17T11:01:37.073Z,6.75
2023-03-17T11:04:38.452Z,6.03
2023-03-17T11:07:22.841Z,6.68
2023-03-17T11:09:59.375Z,6.55
2023-03-17T11:12:54.875Z,6.93
2023-03-17T11:15:25.622Z,5.10
2023-03-17T11:18:04.850Z,5.15
2023-03-17T11:20:52.891Z,9.30
2023-03-17T11:23:34.397Z,5.30
2023-03-17T11:26:16.436Z,6.38
2023-03-17T11:29:10.708Z,8.25
2023-03-17T11:31:49.533Z,6.43
2023-03-17T11:34:45.409Z,9.65
2023-03-17T11:37:34.626Z,8.98
2023-03-17T11:40:35.532Z,7.43
2023-03-17T11:43:38.958Z,6.38
2023-03-17T11:46:21.238Z,5.95
2023-03-17T11:49:02.206Z,7.93
2023-03-17T11:51:58.159Z,7.35
2023-03-17T11:54:48.790Z,5.40
2023-03-17T11:57:42.200Z,6.55
2023-03-17T12:00:19.496Z,5.63
2023-03-17T12:03:32.682Z,6.75
2023-03-17T12:06:10.110Z,5.70
2023-03-17T12:08:51.010Z,6.82
2023-03-17T12:11:30.487Z,7.68
2023-03-17T12:14:08.325Z,5.95
2023-03-17T12:17:16.600Z,6.72
2023-03-17T12:20:10.789Z,4.97
2023-03-17T12:22:59.471Z,6.93
2023-03-17T12:26:01.308Z,7.78
2023-03-17T12:28:40.370Z,5.85
2023-03-17T12:31:19.884Z,6.28
2023-03-17T12:34:23.151Z,5.45
2023-03-17T12:36:55.692Z,6.10
2023-03-17T12:39:33.564Z,6.35
2023-03-17T12:42:30.690Z,6.25
2023-03-17T12:45:39.126Z,5.65
2023-03-17T12:48:25.152Z,5.30
2023-03-17T12:51:19.516Z,8.05
2023-03-17T12:53:52.185Z,5.95
2023-03-17T12:56:34.361Z,6.47
2023-03-17T12:59:11.765Z,7.28
2023-03-17T13:01:48.129Z,6.47
2023-03-17T13:04:26.467Z,6.72
2023-03-17T13:07:14.355Z,7.63
2023-03-17T13:09:50.495Z,7.40
2023-03-17T13:12:42.076Z,7.10
2023-03-17T13:15:37.424Z,6.95
2023-03-17T13:18:20.007Z,7.40
2023-03-17T13:21:00.792Z,7.23
2023-03-17T13:23:45.651Z,6.88
2023-03-17T13:26:21.470Z,9.32
2023-03-17T13:28:53.639Z,8.95
2023-03-17T13:31:33.062Z,7.32
2023-03-17T13:34:19.345Z,7.18
2023-03-17T13:37:27.880Z,6.70
2023-03-17T13:40:01.263Z,11.02
2023-03-17T13:43:03.703Z,8.55
2023-03-17T13:45:46.105Z,8.13
2023-03-17T13:48:31.217Z,7.57
2023-03-17T13:51:15.194Z,9.90
2023-03-17T13:53:57.994Z,8.02
2023-03-17T13:56:43.486Z,8.68
2023-03-17T13:59:14.564Z,9.40
2023-03-17T14:01:53.919Z,9.23
2023-03-17T14:04:29.655Z,8.88
2023-03-17T14:07:08.460Z,7.57
2023-03-17T14:09:45.160Z,8.20
2023-03-17T14:12:21.841Z,7.93
2023-03-17T14:15:08.283Z,7.88
2023-03-17T14:17:49.341Z,8.20
2023-03-17T14:20:20.425Z,7.30
2023-03-17T14:22:57.710Z,8.73
2023-03-17T14:25:48.464Z,7.85
2023-03-17T14:28:21.441Z,9.18
2023-03-17T14:30:58.472Z,9.02
2023-03-17T14:33:31.368Z,9.65
2023-03-17T14:36:04.258Z,9.07
2023-03-17T14:38:37.085Z,10.25
2023-03-17T14:41:19.150Z,10.18
2023-03-17T14:43:51.437Z,9.35
2023-03-17T14:46:40.170Z,9.77
2023-03-17T14:49:22.634Z,10.02
2023-03-17T14:52:00.743Z,10.00
2023-03-17T14:54:36.765Z,9.75
2023-03-17T14:57:17.223Z,9.35
2023-03-17T15:00:18.503Z,9.55
2023-03-17T15:03:00.972Z,9.25
2023-03-17T15:05:44.818Z,8.60
2023-03-17T15:08:44.893Z,10.38
2023-03-17T15:11:25.489Z,9.48
2023-03-17T15:14:17.880Z,10.55
2023-03-17T15:16:53.257Z,9.32
2023-03-17T15:19:46.894Z,10.35
2023-03-17T15:22:29.009Z,12.52
2023-03-17T15:25:28.905Z,10.20
2023-03-17T15:27:59.990Z,12.73
2023-03-17T15:30:44.384Z,9.10
2023-03-17T15:33:31.321Z,10.60
2023-03-17T15:36:02.121Z,13.00
2023-03-17T15:38:32.545Z,11.32
2023-03-17T15:41:02.926Z,10.50
2023-03-17T15:43:33.399Z,9.32
2023-03-17T15:46:08.412Z,11.55
2023-03-17T15:48:39.611Z,10.18
2023-03-17T15:51:12.032Z,11.20
2023-03-17T15:53:42.481Z,11.20
2023-03-17T15:56:22.243Z,11.45
2023-03-17T15:58:53.984Z,10.85
2023-03-17T16:01:27.307Z,11.93
2023-03-17T16:03:58.545Z,15.02
2023-03-17T16:06:29.029Z,9.35
2023-03-17T16:08:59.685Z,12.18
2023-03-17T16:11:33.416Z,10.65
2023-03-17T16:14:04.544Z,13.57
2023-03-17T16:16:45.029Z,12.95
2023-03-17T16:19:26.415Z,12.77
2023-03-17T16:21:57.025Z,11.38
2023-03-17T16:24:29.012Z,15.65
2023-03-17T16:26:59.437Z,11.15
2023-03-17T16:29:29.715Z,11.75
2023-03-17T16:32:00.257Z,11.52
2023-03-17T16:34:30.626Z,14.68
2023-03-17T16:37:01.028Z,12.13
2023-03-17T16:39:33.677Z,12.20
2023-03-17T16:42:05.646Z,12.63
2023-03-17T16:44:36.867Z,13.77
2023-03-17T16:47:07.660Z,13.10
2023-03-17T16:49:38.089Z,11.73
2023-03-17T16:52:08.573Z,12.75
2023-03-17T16:54:39.008Z,12.63
2023-03-17T16:57:11.707Z,12.32
2023-03-17T16:59:42.665Z,12.40
2023-03-17T17:02:18.368Z,13.85
2023-03-17T17:04:48.788Z,13.82
2023-03-17T17:07:19.184Z,12.05
2023-03-17T17:09:49.609Z,10.95
2023-03-17T17:12:19.821Z,15.32
2023-03-17T17:14:50.144Z,12.30
2023-03-17T17:17:20.353Z,14.10
2023-03-17T17:19:50.793Z,12.73
2023-03-17T17:22:21.134Z,14.82
2023-03-17T17:24:51.453Z,12.95
2023-03-17T17:27:21.994Z,13.52
2023-03-17T17:29:52.228Z,12.30
2023-03-17T17:32:25.288Z,14.30
2023-03-17T17:34:55.774Z,12.85
2023-03-17T17:37:26.321Z,13.48
2023-03-17T17:39:57.046Z,12.95
2023-03-17T17:42:27.814Z,10.45
2023-03-17T17:44:58.246Z,12.98
2023-03-17T17:47:32.312Z,14.43
2023-03-17T17:50:02.815Z,15.93
2023-03-17T17:52:33.309Z,13.77
2023-03-17T17:55:03.790Z,12.20
2023-03-17T17:57:34.155Z,13.23
2023-03-17T18:00:07.920Z,14.45
2023-03-17T18:02:41.181Z,14.82
2023-03-17T18:05:12.690Z,13.40
2023-03-17T18:07:43.452Z,16.08
2023-03-17T18:10:23.980Z,13.77
2023-03-17T18:12:55.118Z,16.45
2023-03-17T18:15:27.179Z,12.73
2023-03-17T18:17:57.921Z,15.30
2023-03-17T18:20:28.830Z,16.02
2023-03-17T18:22:59.511Z,14.13
2023-03-17T18:25:31.292Z,15.88
2023-03-17T18:28:02.960Z,16.27
2023-03-17T18:30:36.153Z,14.45
2023-03-17T18:33:18.408Z,14.23
2023-03-17T18:35:50.660Z,16.23
2023-03-17T18:38:21.184Z,18.50
2023-03-17T18:40:51.825Z,17.65
2023-03-17T18:43:22.091Z,19.08
2023-03-17T18:45:52.708Z,16.48
2023-03-17T18:48:23.321Z,18.80
2023-03-17T18:50:53.637Z,16.35
2023-03-17T18:53:24.353Z,16.95
2023-03-17T18:55:54.736Z,17.77
2023-03-17T18:58:25.467Z,17.92
2023-03-17T19:00:59.498Z,20.90
2023-03-17T19:03:31.245Z,17.33
2023-03-17T19:06:11.995Z,20.70
2023-03-17T19:08:42.967Z,17.25
2023-03-17T19:11:15.667Z,17.65
2023-03-17T19:13:47.171Z,19.38
2023-03-17T19:16:18.202Z,20.80
2023-03-17T19:18:48.575Z,19.05
2023-03-17T19:21:18.965Z,19.80
2023-03-17T19:23:49.631Z,19.05
2023-03-17T19:26:21.711Z,20.38
2023-03-17T19:28:52.299Z,17.83
2023-03-17T19:31:22.755Z,19.65
2023-03-17T19:33:53.269Z,20.63
2023-03-17T19:36:23.595Z,19.13
2023-03-17T19:38:53.971Z,16.17
2023-03-17T19:41:24.250Z,20.73
2023-03-17T19:43:54.646Z,21.98
2023-03-17T19:46:25.725Z,17.52
2023-03-17T19:48:58.115Z,19.17
2023-03-17T19:51:29.172Z,20.52
2023-03-17T19:53:59.509Z,19.67
2023-03-17T19:56:29.970Z,19.27
2023-03-17T19:59:00.882Z,22.52
2023-03-17T20:01:33.528Z,20.48
2023-03-17T20:04:03.858Z,22.52
2023-03-17T20:06:35.148Z,22.77
2023-03-17T20:09:05.908Z,17.98
2023-03-17T20:11:36.373Z,20.70
2023-03-17T20:14:07.688Z,20.45
2023-03-17T20:16:39.297Z,22.08
2023-03-17T20:19:10.679Z,19.85
2023-03-17T20:21:41.777Z,24.70
2023-03-17T20:24:16.078Z,21.50
2023-03-17T20:26:47.432Z,22.80
2023-03-17T20:29:19.196Z,22.30
2023-03-17T20:31:49.647Z,24.10
2023-03-17T20:34:20.109Z,21.23
2023-03-17T20:36:50.806Z,24.27
2023-03-17T20:39:23.811Z,23.30
2023-03-17T20:44:25.583Z,23.45
2023-03-17T20:46:56.438Z,23.55
2023-03-17T20:49:26.826Z,21.52
2023-03-17T20:51:57.858Z,24.52
2023-03-17T20:54:28.540Z,25.17
2023-03-17T20:56:58.946Z,25.60
2023-03-17T20:59:29.996Z,25.88
2023-03-17T21:02:00.725Z,26.10
2023-03-17T21:04:31.694Z,27.55
2023-03-17T21:07:02.142Z,24.92
2023-03-17T21:09:32.582Z,24.02
2023-03-17T21:12:02.799Z,27.10
2023-03-17T21:14:33.598Z,22.50
2023-03-17T21:17:05.373Z,25.10
2023-03-17T21:19:37.557Z,24.08
2023-03-17T21:22:08.439Z,24.90
2023-03-17T21:24:41.365Z,25.67
2023-03-17T21:27:12.811Z,27.75
2023-03-17T21:29:44.022Z,22.88
2023-03-17T21:32:14.376Z,26.55
2023-03-17T21:34:45.499Z,25.23
2023-03-17T21:37:19.798Z,24.23
2023-03-17T21:39:50.393Z,24.27
2023-03-17T21:42:21.140Z,23.15
2023-03-17T21:44:53.616Z,23.85
2023-03-17T21:47:24.062Z,24.67
2023-03-17T21:49:54.272Z,25.13
2023-03-17T21:52:24.723Z,25.90
2023-03-17T21:54:56.288Z,26.63
2023-03-17T21:57:29.075Z,24.90
2023-03-17T21:59:59.528Z,29.30
2023-03-17T22:02:30.047Z,26.58
2023-03-17T22:05:00.949Z,28.80
2023-03-17T22:07:31.589Z,23.88
2023-03-17T22:10:02.717Z,26.85
2023-03-17T22:12:33.071Z,26.63
2023-03-17T22:15:03.855Z,24.85
2023-03-17T22:17:34.658Z,29.30
2023-03-17T22:20:08.189Z,26.13
2023-03-17T22:22:38.626Z,23.83
2023-03-17T22:25:09.968Z,24.95
2023-03-17T22:27:40.444Z,27.85
2023-03-17T22:30:12.500Z,26.85
2023-03-17T22:32:43.104Z,28.95
2023-03-17T22:35:14.725Z,27.10
2023-03-17T22:37:45.115Z,31.23
2023-03-17T22:40:16.336Z,26.27
2023-03-17T22:42:46.650Z,23.77
2023-03-17T22:45:17.967Z,27.45
2023-03-17T22:47:48.484Z,24.42
2023-03-17T22:50:20.270Z,27.17
2023-03-17T22:52:50.980Z,25.92
2023-03-17T22:55:21.960Z,24.77
2023-03-17T22:57:53.102Z,26.92
2023-03-17T23:00:24.475Z,24.52
2023-03-17T23:02:55.561Z,26.27
2023-03-17T23:05:27.220Z,26.15
2023-03-17T23:07:57.682Z,27.73
2023-03-17T23:10:28.927Z,26.88
2023-03-17T23:12:59.300Z,27.50
2023-03-17T23:15:29.652Z,23.55
2023-03-17T23:18:00.253Z,20.83
2023-03-17T23:20:30.833Z,24.60
2023-03-17T23:23:01.580Z,26.33
2023-03-17T23:25:32.492Z,25.63
2023-03-17T23:28:03.142Z,20.65
2023-03-17T23:30:34.422Z,27.35
2023-03-17T23:33:06.269Z,26.27
2023-03-17T23:35:37.425Z,23.45
2023-03-17T23:38:10.160Z,24.67
2023-03-17T23:40:41.291Z,26.05
2023-03-17T23:43:11.784Z,24.30
2023-03-17T23:45:43.141Z,27.83
2023-03-17T23:48:14.269Z,23.30
2023-03-17T23:50:45.679Z,26.35
2023-03-17T23:53:16.121Z,26.70
2023-03-17T23:55:46.944Z,23.40
2023-03-17T23:58:18.116Z,23.25
